Neptune Antlia — S6BE — position and weather

sailwx.info

Track history (hours):
 
Tides and Currents Weather Stations Pressure Air Temp Water Temp Dewpoint Dewpoint Depression Visibility Wind Speed Wind Dir Waves Ship Positions

Neptune Antlia

Last reported at 2017-Jul-28 16:28 UTC. Time now 2017-Sep-24 10:34 UTC.
Position N 01°40' E 102°54'.
Warning: this ship's position is 57 days out of date.

Type: Cargo ship. MMSI: 563737000.

Date/timePositionNaut miles runAvg speedWind from/ knotsBaromVisibWave heightAir tempDewpointWater temp
2017-Jul-28 16:28N 01°40' E 102°54'1313.5
2017-Jul-28 15:28N 01°32' E 103°05'2214.6
2017-Jul-28 13:58N 01°17' E 103°21'715.6
2017-Jul-28 13:29N 01°14' E 103°28'815.3
2017-Jul-28 12:59N 01°12' E 103°35'714.3
2017-Jul-28 12:30N 01°10' E 103°42'5 9.9
2017-Jul-28 12:00N 01°10' E 103°47'612.9
2017-Jul-28 11:30N 01°12' E 103°52'5 9.5
2017-Jul-28 11:01N 01°15' E 103°56'2 4.2
2017-Jul-28 10:27N 01°17' E 103°57'0 0.0
2017-Jul-28 10:01N 01°17' E 103°57'0 0.0
2017-Jul-28 09:27N 01°17' E 103°57'0 0.0
2017-Jul-28 08:57N 01°17' E 103°57'0 0.1
2017-Jul-28 08:24N 01°17' E 103°57'0 0.0
2017-Jul-28 07:57N 01°17' E 103°57'0 0.1
2017-Jul-28 07:30N 01°17' E 103°57'0 0.0
2017-Jul-28 06:57N 01°17' E 103°57'0 0.1
2017-Jul-28 06:27N 01°17' E 103°57'0 0.0
2017-Jul-28 05:12N 01°17' E 103°57'0 0.0
2017-Jul-28 05:00N 01°17' E 103°57'0 0.0
2017-Jul-28 04:21N 01°17' E 103°57'0 0.0
2017-Jul-28 03:54N 01°17' E 103°57'0 0.1
2017-Jul-28 03:03N 01°17' E 103°57'0 0.0
2017-Jul-28 02:42N 01°17' E 103°57'0 0.0
2017-Jul-28 00:36N 01°17' E 103°57'0 0.0
2017-Jul-28 00:18N 01°17' E 103°57'0 0.0
2017-Jul-27 23:48N 01°17' E 103°57'0 0.0
2017-Jul-27 23:21N 01°17' E 103°57'0 0.0
2017-Jul-27 20:54N 01°17' E 103°57'0 0.1
2017-Jul-27 19:18N 01°17' E 103°57'0 0.0
2017-Jul-27 19:00N 01°17' E 103°57'0 0.1
2017-Jul-27 18:03N 01°17' E 103°57'0 0.4
2017-Jul-27 17:57N 01°17' E 103°57'1 2.9
2017-Jul-27 17:30N 01°16' E 103°56'3 5.6
2017-Jul-27 17:00N 01°16' E 103°59'3 6.1
2017-Jul-27 16:30N 01°16' E 104°02'  
2017-Jul-22 09:35N 24°21' E 119°19'213.0
2017-Jul-22 09:25N 24°22' E 119°20'35112.9
2017-Jul-21 06:11N 29°15' E 122°57'314.5
2017-Jul-21 06:00N 29°17' E 122°58'3914.4
2017-Jul-21 03:19N 29°54' E 123°13'513.7
2017-Jul-21 02:59N 29°58' E 123°14'1812.6
2017-Jul-21 01:32N 30°16' E 123°19'112.7
2017-Jul-21 01:29N 30°17' E 123°19'2112.2
2017-Jul-20 23:44N 30°38' E 123°20'712.4
2017-Jul-20 23:11N 30°45' E 123°20'312.5
2017-Jul-20 22:56N 30°48' E 123°19'512.7
2017-Jul-20 22:30N 30°52' E 123°15'612.6
2017-Jul-20 22:00N 30°56' E 123°09'713.4
2017-Jul-20 21:30N 30°59' E 123°02'713.1
2017-Jul-20 21:00N 31°02' E 122°55'713.5
2017-Jul-20 20:30N 31°05' E 122°48'714.1
2017-Jul-20 20:01N 31°05' E 122°40'714.5
2017-Jul-20 19:31N 31°05' E 122°32'612.3
2017-Jul-20 19:00N 31°05' E 122°24'713.5
2017-Jul-20 18:30N 31°07' E 122°17'714.2
2017-Jul-20 18:00N 31°11' E 122°10'714.2
2017-Jul-20 17:30N 31°14' E 122°03'714.7
2017-Jul-20 17:00N 31°16' E 121°54'714.9
2017-Jul-20 16:30N 31°18' E 121°46'612.2
2017-Jul-20 16:00N 31°21' E 121°40'611.6
2017-Jul-20 15:30N 31°24' E 121°34'611.6
2017-Jul-20 15:00N 31°27' E 121°28'5 4.7
2017-Jul-20 13:55N 31°30' E 121°23'0 0.0
2017-Jul-20 13:25N 31°30' E 121°23'0 0.0
2017-Jul-20 12:55N 31°30' E 121°23'0 0.0
2017-Jul-20 12:22N 31°30' E 121°23'0 0.0
2017-Jul-20 11:58N 31°30' E 121°23'0 0.0
2017-Jul-20 11:25N 31°30' E 121°23'0 0.0
2017-Jul-20 10:55N 31°30' E 121°23'0 0.0
2017-Jul-20 10:28N 31°30' E 121°23'0 0.0
2017-Jul-20 09:58N 31°30' E 121°23'0 0.0
2017-Jul-20 09:28N 31°30' E 121°23'0 0.0
2017-Jul-20 08:52N 31°30' E 121°23'0 0.0
2017-Jul-20 08:28N 31°30' E 121°23'0 0.0
2017-Jul-20 07:55N 31°30' E 121°23'0 0.0
2017-Jul-20 07:25N 31°30' E 121°23'0 0.0
2017-Jul-20 06:58N 31°30' E 121°23'0 0.0
2017-Jul-20 06:25N 31°30' E 121°23'0 0.0
2017-Jul-20 05:58N 31°30' E 121°23'0 0.0
2017-Jul-20 05:25N 31°30' E 121°23'0 0.0
2017-Jul-20 04:49N 31°30' E 121°23'0 0.0
2017-Jul-20 04:28N 31°30' E 121°23'0 0.0
2017-Jul-20 03:55N 31°30' E 121°23'0 0.0
2017-Jul-20 03:19N 31°30' E 121°23'0 0.0
2017-Jul-20 02:55N 31°30' E 121°23'0 0.0
2017-Jul-20 02:25N 31°30' E 121°23'0 0.0
2017-Jul-20 01:55N 31°30' E 121°23'0 0.0
2017-Jul-20 01:25N 31°30' E 121°23'0 0.0
2017-Jul-20 00:55N 31°30' E 121°23'0 0.0
2017-Jul-20 00:28N 31°30' E 121°23'0 0.0
2017-Jul-19 23:58N 31°30' E 121°23'0 0.0
2017-Jul-19 23:28N 31°30' E 121°23'0 0.0
2017-Jul-19 22:58N 31°30' E 121°23'0 0.0
2017-Jul-19 22:28N 31°30' E 121°23'0 0.0
2017-Jul-19 21:58N 31°30' E 121°23'0 0.0
2017-Jul-19 21:28N 31°30' E 121°23'0 0.0
2017-Jul-19 20:55N 31°30' E 121°23'0 0.0
2017-Jul-19 20:28N 31°30' E 121°23'0 0.0
2017-Jul-19 19:55N 31°30' E 121°23'0 0.0
2017-Jul-19 19:28N 31°30' E 121°23'0 0.0
2017-Jul-19 18:55N 31°30' E 121°23'0 0.0
2017-Jul-19 18:25N 31°30' E 121°23'0 0.0
2017-Jul-19 17:52N 31°30' E 121°23'0 0.0
2017-Jul-19 17:25N 31°30' E 121°23'0 0.0
2017-Jul-19 16:58N 31°30' E 121°23'0 0.0
2017-Jul-19 16:28N 31°30' E 121°23'0 0.0
2017-Jul-19 15:58N 31°30' E 121°23'0 0.0
2017-Jul-19 15:28N 31°30' E 121°23'0 0.0
2017-Jul-19 14:55N 31°30' E 121°23'0 0.0
2017-Jul-19 14:25N 31°30' E 121°23'0 0.0
2017-Jul-19 13:55N 31°30' E 121°23'0 0.0
2017-Jul-19 13:28N 31°30' E 121°23'0 0.0
2017-Jul-19 12:55N 31°30' E 121°23'0 0.0
2017-Jul-19 12:30N 31°30' E 121°23'0 0.0
2017-Jul-19 12:00N 31°30' E 121°23'0 0.0
2017-Jul-19 11:30N 31°30' E 121°23'0 0.0
2017-Jul-19 11:00N 31°30' E 121°23'0 0.0
2017-Jul-19 10:30N 31°30' E 121°23'0 0.0
2017-Jul-19 10:00N 31°30' E 121°23'0 0.0
2017-Jul-19 09:30N 31°30' E 121°23'0 0.0
2017-Jul-19 09:00N 31°30' E 121°23'0 0.0
2017-Jul-19 08:30N 31°30' E 121°23'0 0.0
2017-Jul-19 08:00N 31°30' E 121°23'0 0.0
2017-Jul-19 07:30N 31°30' E 121°23'0 0.0
2017-Jul-19 07:00N 31°30' E 121°23'0 0.0
2017-Jul-19 06:30N 31°30' E 121°23'0 0.0
2017-Jul-19 06:00N 31°30' E 121°23'0 0.0
2017-Jul-19 05:30N 31°30' E 121°23'0 0.0
2017-Jul-19 05:00N 31°30' E 121°23'0 0.0
2017-Jul-19 04:30N 31°30' E 121°23'0 0.0
2017-Jul-19 04:00N 31°30' E 121°23'0 0.0
2017-Jul-19 03:30N 31°30' E 121°23'0 0.0
2017-Jul-19 03:00N 31°30' E 121°23'0 0.0
2017-Jul-19 02:30N 31°30' E 121°23'0 0.0
2017-Jul-19 02:00N 31°30' E 121°23'0 0.0
2017-Jul-19 01:30N 31°30' E 121°23'0 0.0
2017-Jul-19 01:00N 31°30' E 121°23'0 0.0
2017-Jul-19 00:24N 31°30' E 121°23'0 0.0
2017-Jul-19 00:00N 31°30' E 121°23'0 0.0
2017-Jul-18 23:30N 31°30' E 121°23'0 0.0
2017-Jul-18 22:57N 31°30' E 121°23'0 0.0
2017-Jul-18 22:30N 31°30' E 121°23'0 0.0
2017-Jul-18 21:48N 31°30' E 121°23'0 0.0
2017-Jul-18 21:30N 31°30' E 121°23'0 0.0
2017-Jul-18 20:57N 31°30' E 121°23'0 0.0
2017-Jul-18 20:30N 31°30' E 121°23'0 0.0
2017-Jul-18 19:54N 31°30' E 121°23'0 0.0
2017-Jul-18 19:30N 31°30' E 121°23'0 0.0
2017-Jul-18 18:54N 31°30' E 121°23'0 0.0
2017-Jul-18 18:30N 31°30' E 121°23'0 0.0
2017-Jul-18 18:00N 31°30' E 121°23'0 0.0
2017-Jul-18 17:30N 31°30' E 121°23'0 0.0
2017-Jul-18 17:00N 31°30' E 121°23'0 0.0
2017-Jul-18 16:30N 31°30' E 121°23'  
Track history (hours):
 
Tides and Currents Weather Stations Pressure Air Temp Water Temp Dewpoint Dewpoint Depression Visibility Wind Speed Wind Dir Waves Ship Positions

Neptune Antlia

Last reported at 2017-Jul-28 16:28 UTC. Time now 2017-Sep-24 10:34 UTC.
Position N 01°40' E 102°54'.
Warning: this ship's position is 57 days out of date.

Type: Cargo ship. MMSI: 563737000.

Date/timePositionNaut miles runAvg speedWind from/ knotsBaromVisibWave heightAir tempDewpointWater temp
2017-Jul-28 16:28N 01°40' E 102°54'1313.5
2017-Jul-28 15:28N 01°32' E 103°05'2214.6
2017-Jul-28 13:58N 01°17' E 103°21'715.6
2017-Jul-28 13:29N 01°14' E 103°28'815.3
2017-Jul-28 12:59N 01°12' E 103°35'714.3
2017-Jul-28 12:30N 01°10' E 103°42'5 9.9
2017-Jul-28 12:00N 01°10' E 103°47'612.9
2017-Jul-28 11:30N 01°12' E 103°52'5 9.5
2017-Jul-28 11:01N 01°15' E 103°56'2 4.2
2017-Jul-28 10:27N 01°17' E 103°57'0 0.0
2017-Jul-28 10:01N 01°17' E 103°57'0 0.0
2017-Jul-28 09:27N 01°17' E 103°57'0 0.0
2017-Jul-28 08:57N 01°17' E 103°57'0 0.1
2017-Jul-28 08:24N 01°17' E 103°57'0 0.0
2017-Jul-28 07:57N 01°17' E 103°57'0 0.1
2017-Jul-28 07:30N 01°17' E 103°57'0 0.0
2017-Jul-28 06:57N 01°17' E 103°57'0 0.1
2017-Jul-28 06:27N 01°17' E 103°57'0 0.0
2017-Jul-28 05:12N 01°17' E 103°57'0 0.0
2017-Jul-28 05:00N 01°17' E 103°57'0 0.0
2017-Jul-28 04:21N 01°17' E 103°57'0 0.0
2017-Jul-28 03:54N 01°17' E 103°57'0 0.1
2017-Jul-28 03:03N 01°17' E 103°57'0 0.0
2017-Jul-28 02:42N 01°17' E 103°57'0 0.0
2017-Jul-28 00:36N 01°17' E 103°57'0 0.0
2017-Jul-28 00:18N 01°17' E 103°57'0 0.0
2017-Jul-27 23:48N 01°17' E 103°57'0 0.0
2017-Jul-27 23:21N 01°17' E 103°57'0 0.0
2017-Jul-27 20:54N 01°17' E 103°57'0 0.1
2017-Jul-27 19:18N 01°17' E 103°57'0 0.0
2017-Jul-27 19:00N 01°17' E 103°57'0 0.1
2017-Jul-27 18:03N 01°17' E 103°57'0 0.4
2017-Jul-27 17:57N 01°17' E 103°57'1 2.9
2017-Jul-27 17:30N 01°16' E 103°56'3 5.6
2017-Jul-27 17:00N 01°16' E 103°59'3 6.1
2017-Jul-27 16:30N 01°16' E 104°02'  
2017-Jul-22 09:35N 24°21' E 119°19'213.0
2017-Jul-22 09:25N 24°22' E 119°20'35112.9
2017-Jul-21 06:11N 29°15' E 122°57'314.5
2017-Jul-21 06:00N 29°17' E 122°58'3914.4
2017-Jul-21 03:19N 29°54' E 123°13'513.7
2017-Jul-21 02:59N 29°58' E 123°14'1812.6
2017-Jul-21 01:32N 30°16' E 123°19'112.7
2017-Jul-21 01:29N 30°17' E 123°19'2112.2
2017-Jul-20 23:44N 30°38' E 123°20'712.4
2017-Jul-20 23:11N 30°45' E 123°20'312.5
2017-Jul-20 22:56N 30°48' E 123°19'512.7
2017-Jul-20 22:30N 30°52' E 123°15'612.6
2017-Jul-20 22:00N 30°56' E 123°09'713.4
2017-Jul-20 21:30N 30°59' E 123°02'713.1
2017-Jul-20 21:00N 31°02' E 122°55'713.5
2017-Jul-20 20:30N 31°05' E 122°48'714.1
2017-Jul-20 20:01N 31°05' E 122°40'714.5
2017-Jul-20 19:31N 31°05' E 122°32'612.3
2017-Jul-20 19:00N 31°05' E 122°24'713.5
2017-Jul-20 18:30N 31°07' E 122°17'714.2
2017-Jul-20 18:00N 31°11' E 122°10'714.2
2017-Jul-20 17:30N 31°14' E 122°03'714.7
2017-Jul-20 17:00N 31°16' E 121°54'714.9
2017-Jul-20 16:30N 31°18' E 121°46'612.2
2017-Jul-20 16:00N 31°21' E 121°40'611.6
2017-Jul-20 15:30N 31°24' E 121°34'611.6
2017-Jul-20 15:00N 31°27' E 121°28'5 4.7
2017-Jul-20 13:55N 31°30' E 121°23'0 0.0
2017-Jul-20 13:25N 31°30' E 121°23'0 0.0
2017-Jul-20 12:55N 31°30' E 121°23'0 0.0
2017-Jul-20 12:22N 31°30' E 121°23'0 0.0
2017-Jul-20 11:58N 31°30' E 121°23'0 0.0
2017-Jul-20 11:25N 31°30' E 121°23'0 0.0
2017-Jul-20 10:55N 31°30' E 121°23'0 0.0
2017-Jul-20 10:28N 31°30' E 121°23'0 0.0
2017-Jul-20 09:58N 31°30' E 121°23'0 0.0
2017-Jul-20 09:28N 31°30' E 121°23'0 0.0
2017-Jul-20 08:52N 31°30' E 121°23'0 0.0
2017-Jul-20 08:28N 31°30' E 121°23'0 0.0
2017-Jul-20 07:55N 31°30' E 121°23'0 0.0
2017-Jul-20 07:25N 31°30' E 121°23'0 0.0
2017-Jul-20 06:58N 31°30' E 121°23'0 0.0
2017-Jul-20 06:25N 31°30' E 121°23'0 0.0
2017-Jul-20 05:58N 31°30' E 121°23'0 0.0
2017-Jul-20 05:25N 31°30' E 121°23'0 0.0
2017-Jul-20 04:49N 31°30' E 121°23'0 0.0
2017-Jul-20 04:28N 31°30' E 121°23'0 0.0
2017-Jul-20 03:55N 31°30' E 121°23'0 0.0
2017-Jul-20 03:19N 31°30' E 121°23'0 0.0
2017-Jul-20 02:55N 31°30' E 121°23'0 0.0
2017-Jul-20 02:25N 31°30' E 121°23'0 0.0
2017-Jul-20 01:55N 31°30' E 121°23'0 0.0
2017-Jul-20 01:25N 31°30' E 121°23'0 0.0
2017-Jul-20 00:55N 31°30' E 121°23'0 0.0
2017-Jul-20 00:28N 31°30' E 121°23'0 0.0
2017-Jul-19 23:58N 31°30' E 121°23'0 0.0
2017-Jul-19 23:28N 31°30' E 121°23'0 0.0
2017-Jul-19 22:58N 31°30' E 121°23'0 0.0
2017-Jul-19 22:28N 31°30' E 121°23'0 0.0
2017-Jul-19 21:58N 31°30' E 121°23'0 0.0
2017-Jul-19 21:28N 31°30' E 121°23'0 0.0
2017-Jul-19 20:55N 31°30' E 121°23'0 0.0
2017-Jul-19 20:28N 31°30' E 121°23'0 0.0
2017-Jul-19 19:55N 31°30' E 121°23'0 0.0
2017-Jul-19 19:28N 31°30' E 121°23'0 0.0
2017-Jul-19 18:55N 31°30' E 121°23'0 0.0
2017-Jul-19 18:25N 31°30' E 121°23'0 0.0
2017-Jul-19 17:52N 31°30' E 121°23'0 0.0
2017-Jul-19 17:25N 31°30' E 121°23'0 0.0
2017-Jul-19 16:58N 31°30' E 121°23'0 0.0
2017-Jul-19 16:28N 31°30' E 121°23'0 0.0
2017-Jul-19 15:58N 31°30' E 121°23'0 0.0
2017-Jul-19 15:28N 31°30' E 121°23'0 0.0
2017-Jul-19 14:55N 31°30' E 121°23'0 0.0
2017-Jul-19 14:25N 31°30' E 121°23'0 0.0
2017-Jul-19 13:55N 31°30' E 121°23'0 0.0
2017-Jul-19 13:28N 31°30' E 121°23'0 0.0
2017-Jul-19 12:55N 31°30' E 121°23'0 0.0
2017-Jul-19 12:30N 31°30' E 121°23'0 0.0
2017-Jul-19 12:00N 31°30' E 121°23'0 0.0
2017-Jul-19 11:30N 31°30' E 121°23'0 0.0
2017-Jul-19 11:00N 31°30' E 121°23'0 0.0
2017-Jul-19 10:30N 31°30' E 121°23'0 0.0
2017-Jul-19 10:00N 31°30' E 121°23'0 0.0
2017-Jul-19 09:30N 31°30' E 121°23'0 0.0
2017-Jul-19 09:00N 31°30' E 121°23'0 0.0
2017-Jul-19 08:30N 31°30' E 121°23'0 0.0
2017-Jul-19 08:00N 31°30' E 121°23'0 0.0
2017-Jul-19 07:30N 31°30' E 121°23'0 0.0
2017-Jul-19 07:00N 31°30' E 121°23'0 0.0
2017-Jul-19 06:30N 31°30' E 121°23'0 0.0
2017-Jul-19 06:00N 31°30' E 121°23'0 0.0
2017-Jul-19 05:30N 31°30' E 121°23'0 0.0
2017-Jul-19 05:00N 31°30' E 121°23'0 0.0
2017-Jul-19 04:30N 31°30' E 121°23'0 0.0
2017-Jul-19 04:00N 31°30' E 121°23'0 0.0
2017-Jul-19 03:30N 31°30' E 121°23'0 0.0
2017-Jul-19 03:00N 31°30' E 121°23'0 0.0
2017-Jul-19 02:30N 31°30' E 121°23'0 0.0
2017-Jul-19 02:00N 31°30' E 121°23'0 0.0
2017-Jul-19 01:30N 31°30' E 121°23'0 0.0
2017-Jul-19 01:00N 31°30' E 121°23'0 0.0
2017-Jul-19 00:24N 31°30' E 121°23'0 0.0
2017-Jul-19 00:00N 31°30' E 121°23'0 0.0
2017-Jul-18 23:30N 31°30' E 121°23'0 0.0
2017-Jul-18 22:57N 31°30' E 121°23'0 0.0
2017-Jul-18 22:30N 31°30' E 121°23'0 0.0
2017-Jul-18 21:48N 31°30' E 121°23'0 0.0
2017-Jul-18 21:30N 31°30' E 121°23'0 0.0
2017-Jul-18 20:57N 31°30' E 121°23'0 0.0
2017-Jul-18 20:30N 31°30' E 121°23'0 0.0
2017-Jul-18 19:54N 31°30' E 121°23'0 0.0
2017-Jul-18 19:30N 31°30' E 121°23'0 0.0
2017-Jul-18 18:54N 31°30' E 121°23'0 0.0
2017-Jul-18 18:30N 31°30' E 121°23'0 0.0
2017-Jul-18 18:00N 31°30' E 121°23'0 0.0
2017-Jul-18 17:30N 31°30' E 121°23'0 0.0
2017-Jul-18 17:00N 31°30' E 121°23'0 0.0
2017-Jul-18 16:30N 31°30' E 121°23'  

Dump ship's entire track history